Time;durP1;ratioP1;P1;durP2;ratioP2;P2;SDS_P1;SDS_P2;PMS_P1;PMS_P2;Temp;Humidity;BMP_temperature;BMP_pressure;BME280_temperature;BME280_humidity;BME280_pressure;Samples;Min_cycle;Max_cycle;Signal;HPM_P1;HPM_P2
2023/06/24 00:01:17;;;;;;;32.50;3.37;;;;;;;25.18;60.70;100101.75;7310719;19;129405;-43
2023/06/24 00:03:46;;;;;;;23.10;2.70;;;;;;;25.25;60.27;100121.22;7314246;19;129187;-39
2023/06/24 00:06:17;;;;;;;30.90;3.20;;;;;;;25.22;60.46;100114.44;7312029;19;129013;-44
2023/06/24 00:08:44;;;;;;;51.72;4.57;;;;;;;25.25;60.79;100114.16;7309131;19;130270;-44
2023/06/24 00:11:10;;;;;;;30.50;3.28;;;;;;;25.27;60.18;100116.66;7311120;19;129781;-39
2023/06/24 00:13:36;;;;;;;24.73;2.93;;;;;;;25.27;60.21;100116.66;7313833;19;129099;-44
2023/06/24 00:16:01;;;;;;;62.33;5.13;;;;;;;25.26;60.86;100107.91;7311222;19;129399;-44
2023/06/24 00:18:28;;;;;;;30.67;3.27;;;;;;;25.26;60.98;100107.09;7313308;19;129984;-39
2023/06/24 00:20:54;;;;;;;46.33;4.55;;;;;;;25.14;60.61;100087.25;7310158;19;129563;-40
2023/06/24 00:23:24;;;;;;;30.57;3.37;;;;;;;25.25;60.67;100102.81;7312996;19;130503;-40
2023/06/24 00:25:50;;;;;;;16.75;2.47;;;;;;;25.24;60.28;100096.72;7311366;19;130899;-43
2023/06/24 00:28:16;;;;;;;48.65;4.45;;;;;;;25.25;60.75;100097.53;7311950;19;131101;-43
2023/06/24 00:30:41;;;;;;;26.30;2.93;;;;;;;25.26;61.05;100091.28;7311262;19;129453;-41
2023/06/24 00:33:09;;;;;;;19.50;2.67;;;;;;;25.26;60.73;100088.66;7312198;19;129002;-43
2023/06/24 00:35:34;;;;;;;33.20;3.45;;;;;;;25.25;60.51;100087.03;7312550;19;130852;-40
2023/06/24 00:38:00;;;;;;;44.87;4.83;;;;;;;25.26;60.54;100078.97;7309283;19;130202;-42
2023/06/24 00:40:25;;;;;;;28.07;3.23;;;;;;;25.24;61.03;100077.44;7310398;19;129864;-43
2023/06/24 00:42:50;;;;;;;33.23;3.50;;;;;;;25.25;60.65;100076.50;7310911;19;129190;-37
2023/06/24 00:45:17;;;;;;;54.90;5.20;;;;;;;25.27;60.02;100085.06;7309036;19;129516;-44
2023/06/24 00:47:43;;;;;;;46.10;4.05;;;;;;;25.20;60.78;100074.31;7312580;19;131116;-40
2023/06/24 00:50:11;;;;;;;22.87;3.00;;;;;;;25.24;60.53;100075.66;7310535;19;129021;-42
2023/06/24 00:52:42;;;;;;;27.50;3.15;;;;;;;25.23;60.50;100078.44;7311877;19;129018;-41
2023/06/24 00:55:08;;;;;;;32.95;3.65;;;;;;;25.21;60.43;100072.50;7310890;19;129687;-44
2023/06/24 00:57:38;;;;;;;44.50;4.35;;;;;;;25.20;60.40;100068.22;7311544;19;130343;-42
2023/06/24 01:00:09;;;;;;;22.17;3.08;;;;;;;25.22;60.21;100076.81;7310901;19;129392;-42
2023/06/24 01:02:37;;;;;;;17.23;2.70;;;;;;;25.22;60.64;100068.91;7309883;19;128976;-40
2023/06/24 01:05:03;;;;;;;24.52;3.17;;;;;;;25.22;60.26;100071.53;7310681;19;129423;-42
2023/06/24 01:07:30;;;;;;;26.92;3.42;;;;;;;25.22;60.66;100072.34;7310939;19;131088;-45
2023/06/24 01:09:56;;;;;;;26.58;3.42;;;;;;;25.23;60.68;100073.19;7317182;19;130111;-40
2023/06/24 01:12:21;;;;;;;33.00;3.57;;;;;;;25.23;60.27;100078.44;7315553;19;129630;-40
2023/06/24 01:14:46;;;;;;;13.80;2.57;;;;;;;25.23;60.21;100076.66;7317597;19;129481;-43
2023/06/24 01:17:18;;;;;;;57.07;4.87;;;;;;;25.20;60.27;100074.31;7313389;19;129143;-41
2023/06/24 01:20:07;;;;;;;33.17;3.90;;;;;;;25.21;60.94;100075.13;7318021;19;129527;-44
2023/06/24 01:22:51;;;;;;;29.92;3.40;;;;;;;25.20;61.03;100070.84;7319553;19;129487;-41
2023/06/24 01:25:19;;;;;;;28.52;3.70;;;;;;;25.20;60.24;100068.22;7317370;19;129026;-43
2023/06/24 01:28:09;;;;;;;29.25;3.33;;;;;;;25.22;60.67;100068.91;7317270;19;130389;-40
2023/06/24 01:30:49;;;;;;;26.10;3.28;;;;;;;25.22;60.87;100071.53;7314649;19;129173;-43
2023/06/24 01:33:22;;;;;;;66.53;5.57;;;;;;;25.19;61.11;100071.81;7316157;19;129016;-43
2023/06/24 01:35:48;;;;;;;16.95;2.75;;;;;;;25.19;60.78;100072.66;7316494;19;130279;-39
2023/06/24 01:38:33;;;;;;;35.17;3.70;;;;;;;25.24;60.60;100080.91;7314962;19;130949;-42
2023/06/24 01:41:02;;;;;;;50.30;4.68;;;;;;;25.20;60.99;100084.84;7315320;19;129287;-38
2023/06/24 01:43:28;;;;;;;26.38;3.20;;;;;;;25.14;61.04;100076.72;7317955;19;129554;-45
2023/06/24 01:45:56;;;;;;;32.73;4.20;;;;;;;25.19;61.11;100083.19;7315111;19;129584;-45
2023/06/24 01:48:28;;;;;;;25.20;3.22;;;;;;;25.19;61.15;100087.59;7317430;19;130448;-43
2023/06/24 01:50:57;;;;;;;31.80;3.65;;;;;;;25.18;60.62;100085.97;7313733;19;129353;-45
2023/06/24 01:53:24;;;;;;;43.60;4.30;;;;;;;25.10;60.38;100068.31;7315914;19;129246;-43
2023/06/24 01:55:50;;;;;;;49.85;4.72;;;;;;;25.19;60.28;100088.44;7316600;19;130980;-39
2023/06/24 01:58:18;;;;;;;23.30;3.08;;;;;;;25.15;60.65;100087.09;7316417;19;129588;-40
2023/06/24 02:00:43;;;;;;;31.88;3.70;;;;;;;25.20;61.01;100084.00;7314138;19;128868;-43
2023/06/24 02:03:10;;;;;;;31.53;3.57;;;;;;;25.18;60.64;100075.44;7316291;19;129566;-43
2023/06/24 02:05:40;;;;;;;46.00;4.45;;;;;;;25.19;60.57;100077.91;7316795;19;130113;-41
2023/06/24 02:08:09;;;;;;;42.15;4.47;;;;;;;25.20;60.54;100084.00;7316442;19;129651;-40
2023/06/24 02:10:38;;;;;;;35.22;4.15;;;;;;;25.19;60.63;100090.22;7314015;19;129458;-40
2023/06/24 02:13:05;;;;;;;36.65;4.07;;;;;;;25.19;60.51;100098.13;7316209;19;129164;-41
2023/06/24 02:15:31;;;;;;;37.83;4.60;;;;;;;25.19;60.66;100087.59;7314518;19;129282;-35
2023/06/24 02:17:57;;;;;;;;;;;;;;;25.28;60.60;100091.97;7313449;19;129576;-39
2023/06/24 02:20:27;;;;;;;35.65;3.75;;;;;;;25.21;60.12;100090.91;7313872;19;129286;-39
2023/06/24 02:22:53;;;;;;;61.88;5.60;;;;;;;25.18;60.67;100085.97;7315152;19;128945;-37
2023/06/24 02:25:19;;;;;;;;;;;;;;;25.27;60.70;100085.06;7316048;19;129784;-39
2023/06/24 02:27:44;;;;;;;31.95;3.78;;;;;;;25.20;60.70;100082.22;7314620;19;129450;-39
2023/06/24 02:30:11;;;;;;;43.97;4.73;;;;;;;25.20;60.92;100084.00;7313476;19;129377;-41
2023/06/24 02:32:38;;;;;;;34.13;4.30;;;;;;;25.12;60.73;100065.53;7315399;19;128847;-35
2023/06/24 02:35:04;;;;;;;25.55;3.15;;;;;;;25.16;60.72;100078.22;7315615;19;129196;-39
2023/06/24 02:37:30;;;;;;;35.17;4.03;;;;;;;25.17;60.81;100073.78;7314292;19;129990;-39
2023/06/24 02:39:56;;;;;;;26.50;3.73;;;;;;;25.17;61.03;100074.59;7313653;19;129012;-38
2023/06/24 02:42:21;;;;;;;50.42;4.93;;;;;;;25.17;60.34;100079.06;7313387;19;129288;-39
2023/06/24 02:44:47;;;;;;;51.90;5.37;;;;;;;25.17;61.08;100081.69;7312728;19;130587;-36
2023/06/24 02:47:15;;;;;;;26.60;3.67;;;;;;;25.17;60.75;100079.06;7312397;19;129671;-36
2023/06/24 02:49:46;;;;;;;29.60;3.72;;;;;;;25.16;60.36;100083.47;7312531;19;129927;-38
2023/06/24 02:52:12;;;;;;;42.28;4.28;;;;;;;25.18;61.02;100085.97;7316488;19;130296;-38
2023/06/24 02:54:39;;;;;;;28.13;3.72;;;;;;;25.16;61.13;100083.47;7314240;19;129214;-40
2023/06/24 02:57:06;;;;;;;29.85;3.78;;;;;;;25.15;60.82;100078.38;7314114;19;130209;-42
2023/06/24 02:59:32;;;;;;;66.43;5.60;;;;;;;25.16;60.49;100090.53;7313525;19;128916;-39
2023/06/24 03:01:58;;;;;;;43.23;4.53;;;;;;;25.15;61.02;100094.16;7315310;19;129067;-38
2023/06/24 03:04:25;;;;;;;34.30;3.90;;;;;;;25.16;61.12;100093.16;7316361;19;130324;-40
2023/06/24 03:06:52;;;;;;;93.35;7.70;;;;;;;25.07;60.83;100078.31;7309506;19;129781;-41
2023/06/24 03:09:18;;;;;;;30.33;3.72;;;;;;;25.11;60.93;100092.78;7313881;19;130798;-36
2023/06/24 03:11:44;;;;;;;54.13;5.15;;;;;;;25.16;60.69;100101.91;7312827;19;129349;-37
2023/06/24 03:14:11;;;;;;;51.45;5.70;;;;;;;25.15;61.14;100096.78;7314274;19;130337;-39
2023/06/24 03:16:38;;;;;;;48.65;5.07;;;;;;;25.12;60.40;100091.84;7313023;19;129108;-39
2023/06/24 03:19:04;;;;;;;81.47;7.28;;;;;;;25.13;60.70;100096.09;7310283;19;130155;-37
2023/06/24 03:21:29;;;;;;;35.57;4.23;;;;;;;25.16;61.00;100095.81;7309282;19;129400;-39
2023/06/24 03:23:55;;;;;;;24.87;3.50;;;;;;;25.16;60.96;100095.81;7314471;19;130509;-36
2023/06/24 03:26:20;;;;;;;28.50;3.67;;;;;;;25.13;60.35;100088.22;7311054;19;129677;-39
2023/06/24 03:28:46;;;;;;;26.70;3.50;;;;;;;25.14;60.88;100089.88;7312068;19;129804;-37
2023/06/24 03:31:15;;;;;;;38.13;4.30;;;;;;;25.17;60.91;100094.84;7309113;19;129045;-40
2023/06/24 03:33:44;;;;;;;32.92;4.47;;;;;;;25.16;60.41;100108.97;7314188;19;129557;-37
2023/06/24 03:36:09;;;;;;;43.50;4.57;;;;;;;25.15;60.29;100112.59;7313443;19;129349;-36
2023/06/24 03:38:35;;;;;;;24.30;3.60;;;;;;;25.14;60.47;100100.41;7311243;19;129270;-34
2023/06/24 03:41:00;;;;;;;46.20;4.60;;;;;;;25.12;60.46;100102.34;7310831;19;128759;-43
2023/06/24 03:43:25;;;;;;;32.77;3.77;;;;;;;25.16;60.68;100108.97;7310545;19;131330;-39
2023/06/24 03:45:51;;;;;;;33.50;4.33;;;;;;;25.16;60.75;100098.44;7309317;19;129734;-33
2023/06/24 03:48:16;;;;;;;27.03;3.80;;;;;;;25.17;60.83;100102.75;7311342;19;129127;-39
2023/06/24 03:50:42;;;;;;;52.37;5.33;;;;;;;25.15;60.34;100102.06;7309685;19;128965;-37
2023/06/24 03:53:07;;;;;;;23.10;3.50;;;;;;;25.14;60.65;100114.38;7313071;19;129341;-35
2023/06/24 03:55:32;;;;;;;15.17;2.83;;;;;;;25.13;61.03;100125.06;7312166;19;129419;-41
2023/06/24 03:57:58;;;;;;;84.50;7.60;;;;;;;25.13;60.72;100125.06;7308303;19;129198;-37
2023/06/24 04:00:23;;;;;;;32.20;3.83;;;;;;;25.14;60.35;100132.00;7310814;19;129653;-41
2023/06/24 04:02:48;;;;;;;29.27;3.63;;;;;;;25.03;60.93;100113.78;7312094;19;129349;-42
2023/06/24 04:05:14;;;;;;;37.00;4.33;;;;;;;25.12;60.89;100133.94;7310712;19;130370;-36
2023/06/24 04:07:39;;;;;;;45.33;4.73;;;;;;;25.05;61.17;100123.19;7312479;19;129278;-37
2023/06/24 04:10:08;;;;;;;32.97;3.83;;;;;;;25.14;60.82;100130.16;7310125;19;129199;-34
2023/06/24 04:12:35;;;;;;;25.13;3.67;;;;;;;25.14;60.74;100132.00;7310396;19;129743;-41
2023/06/24 04:15:01;;;;;;;54.00;5.53;;;;;;;25.13;60.78;100143.47;7310449;19;129518;-37
2023/06/24 04:17:26;;;;;;;36.03;4.28;;;;;;;25.13;60.82;100151.38;7311223;19;129082;-34
2023/06/24 04:19:51;;;;;;;75.00;6.37;;;;;;;25.12;60.55;100139.19;7308975;19;129470;-43
2023/06/24 04:22:17;;;;;;;24.33;3.80;;;;;;;25.13;60.44;100140.84;7309289;19;130614;-38
2023/06/24 04:24:42;;;;;;;50.20;5.40;;;;;;;25.13;60.96;100143.47;7309737;19;129966;-38
2023/06/24 04:27:08;;;;;;;51.57;5.37;;;;;;;25.12;60.78;100147.09;7306539;19;129105;-39
2023/06/24 04:29:34;;;;;;;55.42;5.75;;;;;;;25.13;60.79;100161.91;7312252;19;130128;-34
2023/06/24 04:32:00;;;;;;;28.10;4.03;;;;;;;25.12;60.31;100165.50;7309009;19;132251;-34
2023/06/24 04:34:25;;;;;;;27.47;4.20;;;;;;;25.13;60.36;100159.25;7312512;19;129431;-39
2023/06/24 04:36:50;;;;;;;41.90;4.57;;;;;;;25.12;60.86;100160.25;7306568;19;128995;-43
2023/06/24 04:39:16;;;;;;;49.50;5.00;;;;;;;25.13;61.02;100167.16;7312264;19;130693;-38
2023/06/24 04:41:41;;;;;;;45.57;4.90;;;;;;;25.12;60.65;100163.69;7306328;19;129415;-40
2023/06/24 04:44:07;;;;;;;48.37;5.00;;;;;;;25.13;60.52;100175.06;7306758;19;129337;-42
2023/06/24 04:46:33;;;;;;;43.77;4.43;;;;;;;25.11;60.77;100175.19;7304745;19;129255;-40
2023/06/24 04:48:58;;;;;;;35.30;4.15;;;;;;;25.12;60.80;100176.03;7310253;19;129559;-35
2023/06/24 04:51:24;;;;;;;25.00;3.53;;;;;;;25.13;60.75;100177.69;7309432;19;130029;-36
2023/06/24 04:53:49;;;;;;;27.47;3.90;;;;;;;25.12;60.46;100186.56;7311266;19;129316;-39
2023/06/24 04:56:14;;;;;;;44.47;5.00;;;;;;;25.11;61.04;100192.78;7312276;19;128980;-39
2023/06/24 04:58:40;;;;;;;31.50;4.17;;;;;;;25.10;60.74;100189.34;7308460;19;130224;-39
2023/06/24 05:01:05;;;;;;;42.27;4.70;;;;;;;25.11;60.41;100190.16;7310715;19;129097;-35
2023/06/24 05:03:30;;;;;;;30.33;4.23;;;;;;;25.11;61.06;100182.25;7306072;19;129502;-41
2023/06/24 05:05:55;;;;;;;43.20;4.70;;;;;;;25.11;60.58;100184.88;7308939;19;129558;-38
2023/06/24 05:08:21;;;;;;;35.13;4.20;;;;;;;25.11;60.70;100184.88;7308058;19;130997;-39
2023/06/24 05:10:46;;;;;;;27.57;4.03;;;;;;;25.04;60.60;100176.75;7306148;19;129224;-33
2023/06/24 05:13:11;;;;;;;55.83;5.33;;;;;;;25.11;60.34;100190.16;7310000;19;129208;-33
2023/06/24 05:15:37;;;;;;;41.63;4.73;;;;;;;25.01;60.78;100177.06;7306303;19;128972;-41
2023/06/24 05:18:02;;;;;;;61.53;6.07;;;;;;;25.05;60.85;100185.50;7310309;19;130456;-40
2023/06/24 05:20:28;;;;;;;49.23;5.30;;;;;;;25.09;60.99;100202.66;7307130;19;129475;-40
2023/06/24 05:22:54;;;;;;;38.43;4.40;;;;;;;25.07;60.81;100189.63;7310977;19;129411;-43
2023/06/24 05:25:20;;;;;;;25.38;3.60;;;;;;;25.08;60.61;100190.44;7309185;19;131252;-39
2023/06/24 05:27:45;;;;;;;25.17;4.23;;;;;;;25.10;61.12;100188.50;7310405;19;128753;-35
2023/06/24 05:30:12;;;;;;;40.90;4.37;;;;;;;25.08;60.85;100185.19;7306926;19;129342;-33
2023/06/24 05:32:38;;;;;;;38.17;4.50;;;;;;;25.07;61.25;100200.13;7311726;19;129261;-34
2023/06/24 05:35:04;;;;;;;26.17;3.97;;;;;;;25.07;60.89;100199.34;7308495;19;129899;-43
2023/06/24 05:37:29;;;;;;;26.53;3.87;;;;;;;25.08;60.81;100204.44;7310647;19;129190;-35
2023/06/24 05:39:55;;;;;;;43.77;5.03;;;;;;;25.06;61.14;100202.91;7306505;19;129619;-35
2023/06/24 05:42:22;;;;;;;30.67;3.93;;;;;;;25.06;60.76;100195.88;7309669;19;129442;-39
2023/06/24 05:44:48;;;;;;;37.08;4.22;;;;;;;25.06;60.65;100187.13;7310666;19;129008;-37
2023/06/24 05:47:13;;;;;;;27.93;3.80;;;;;;;25.06;61.27;100187.97;7307499;19;128868;-38
2023/06/24 05:49:38;;;;;;;36.40;4.40;;;;;;;25.04;60.70;100181.22;7308971;19;129054;-35
2023/06/24 05:52:05;;;;;;;28.67;3.93;;;;;;;25.06;61.21;100185.34;7311142;19;129402;-37
2023/06/24 05:54:30;;;;;;;31.52;3.90;;;;;;;25.05;60.90;100191.59;7313057;19;128858;-40
2023/06/24 05:56:55;;;;;;;35.40;4.33;;;;;;;25.04;60.60;100189.13;7317442;19;129468;-36
2023/06/24 05:59:21;;;;;;;30.43;4.47;;;;;;;25.06;60.92;100205.56;7313650;19;129141;-39
2023/06/24 06:01:46;;;;;;;43.00;4.50;;;;;;;25.07;60.46;100204.59;7316519;19;129153;-41
2023/06/24 06:04:11;;;;;;;35.23;4.60;;;;;;;24.95;61.26;100196.06;7316319;19;128993;-37
2023/06/24 06:06:37;;;;;;;30.60;4.30;;;;;;;25.08;61.15;100212.34;7315683;19;129302;-38
2023/06/24 06:09:02;;;;;;;42.57;4.77;;;;;;;25.00;60.51;100193.00;7314558;19;129585;-43
2023/06/24 06:11:28;;;;;;;25.40;3.70;;;;;;;25.08;60.26;100214.13;7315152;19;129844;-33
2023/06/24 06:13:53;;;;;;;42.97;5.17;;;;;;;25.07;61.22;100220.38;7315191;19;129200;-38
2023/06/24 06:16:18;;;;;;;25.83;4.37;;;;;;;25.07;61.15;100215.13;7315544;19;128989;-43
2023/06/24 06:18:44;;;;;;;26.27;3.90;;;;;;;25.07;60.45;100212.50;7314638;19;130432;-38
2023/06/24 06:21:09;;;;;;;29.50;4.40;;;;;;;24.99;60.75;100201.88;7314214;19;131166;-39
2023/06/24 06:23:34;;;;;;;30.30;4.40;;;;;;;25.05;61.01;100224.97;7313040;19;130821;-40
2023/06/24 06:26:00;;;;;;;53.07;6.23;;;;;;;25.03;61.16;100219.00;7314060;19;129193;-41
2023/06/24 06:28:25;;;;;;;49.07;6.53;;;;;;;25.02;60.97;100222.63;7313462;19;129615;-40
2023/06/24 06:30:51;;;;;;;30.30;6.90;;;;;;;25.08;60.99;100227.28;7313173;19;129470;-35
2023/06/24 06:33:16;;;;;;;37.90;6.50;;;;;;;25.06;60.26;100223.97;7314157;19;130454;-37
2023/06/24 06:35:41;;;;;;;42.47;7.53;;;;;;;25.06;60.41;100229.22;7313255;19;130619;-40
2023/06/24 06:38:07;;;;;;;91.77;10.60;;;;;;;25.05;60.91;100227.59;7311986;19;130217;-39
2023/06/24 06:40:32;;;;;;;36.97;7.40;;;;;;;25.04;60.87;100223.31;7313298;19;129650;-36
2023/06/24 06:42:57;;;;;;;80.67;10.90;;;;;;;25.04;60.11;100215.41;7309665;19;129166;-41
2023/06/24 06:45:23;;;;;;;42.23;8.10;;;;;;;25.04;60.83;100220.69;7313907;19;129693;-38
2023/06/24 06:47:49;;;;;;;45.30;9.10;;;;;;;24.99;60.25;100215.84;7312547;19;129462;-33
2023/06/24 06:50:15;;;;;;;41.63;8.80;;;;;;;25.04;60.39;100216.22;7308591;19;131002;-35
2023/06/24 06:52:40;;;;;;;39.00;8.77;;;;;;;25.01;60.58;100223.59;7316328;19;129390;-38
2023/06/24 06:55:06;;;;;;;60.07;10.17;;;;;;;25.02;60.48;100217.38;7309527;19;130579;-44
2023/06/24 06:57:31;;;;;;;86.57;11.50;;;;;;;25.00;60.07;100225.41;7314053;19;130269;-39
2023/06/24 06:59:57;;;;;;;38.90;9.47;;;;;;;25.01;60.42;100232.31;7309242;19;130919;-38
2023/06/24 07:02:22;;;;;;;39.53;10.10;;;;;;;24.99;60.48;100226.34;7311973;19;129152;-39
2023/06/24 07:04:48;;;;;;;62.33;10.20;;;;;;;25.00;60.11;100230.66;7310973;19;129762;-44
2023/06/24 07:07:13;;;;;;;12.87;7.33;;;;;;;24.95;60.07;100222.38;7311074;19;129580;-40
2023/06/24 07:09:39;;;;;;;44.93;9.53;;;;;;;24.94;60.37;100225.97;7310771;19;130436;-37
2023/06/24 07:12:06;;;;;;;21.77;7.83;;;;;;;24.96;60.12;100229.28;7312974;19;130148;-39
2023/06/24 07:14:31;;;;;;;68.65;10.00;;;;;;;24.95;60.37;100227.66;7308979;19;129307;-42
2023/06/24 07:16:56;;;;;;;31.33;7.87;;;;;;;24.95;60.29;100227.66;7311511;19;129579;-39
2023/06/24 07:19:22;;;;;;;36.20;8.07;;;;;;;24.98;60.27;100231.78;7313175;19;129217;-35
2023/06/24 07:21:47;;;;;;;51.00;8.97;;;;;;;24.96;60.26;100233.72;7310138;19;128972;-38
2023/06/24 07:24:12;;;;;;;34.07;8.50;;;;;;;24.98;60.01;100240.50;7315576;19;129155;-40
2023/06/24 07:26:38;;;;;;;38.37;7.93;;;;;;;24.95;60.62;100234.69;7310172;19;129148;-39
2023/06/24 07:29:06;;;;;;;46.80;8.37;;;;;;;24.96;60.32;100238.97;7313515;19;129535;-38
2023/06/24 07:31:31;;;;;;;55.85;8.85;;;;;;;24.90;60.71;100227.25;7311266;19;129362;-35
2023/06/24 07:33:57;;;;;;;29.93;9.17;;;;;;;24.92;60.17;100237.63;7314837;19;129238;-40
2023/06/24 07:36:22;;;;;;;29.87;8.07;;;;;;;24.94;60.65;100235.69;7314208;19;129211;-38
2023/06/24 07:38:47;;;;;;;28.57;8.10;;;;;;;24.92;60.01;100242.88;7312396;19;129661;-39
2023/06/24 07:41:13;;;;;;;46.47;8.83;;;;;;;24.81;60.35;100224.66;7306634;19;129702;-39
2023/06/24 07:43:39;;;;;;;44.03;8.63;;;;;;;24.89;60.28;100249.25;7314806;19;129449;-34
2023/06/24 07:46:04;;;;;;;36.00;8.73;;;;;;;24.91;60.28;100246.47;7310332;19;129431;-38
2023/06/24 07:48:29;;;;;;;42.17;8.97;;;;;;;24.89;60.39;100243.19;7312562;19;129338;-40
2023/06/24 07:50:55;;;;;;;73.87;10.17;;;;;;;24.90;59.93;100250.09;7310850;19;129396;-37
2023/06/24 07:53:20;;;;;;;30.73;8.73;;;;;;;24.89;59.89;100249.25;7315231;19;129334;-37
2023/06/24 07:55:45;;;;;;;30.67;7.87;;;;;;;24.85;60.65;100241.81;7313673;19;129243;-44
2023/06/24 07:58:11;;;;;;;29.77;7.53;;;;;;;24.86;60.56;100246.09;7312624;19;130044;-38
2023/06/24 08:00:36;;;;;;;37.77;7.80;;;;;;;24.85;59.97;100241.81;7312720;19;128872;-41
2023/06/24 08:03:02;;;;;;;29.53;8.23;;;;;;;24.85;60.66;100236.53;7313124;19;128665;-37
2023/06/24 08:05:27;;;;;;;30.03;7.90;;;;;;;24.85;60.03;100239.16;7313885;19;129821;-39
2023/06/24 08:07:53;;;;;;;39.93;8.60;;;;;;;24.75;60.35;100219.97;7310869;19;129358;-40
2023/06/24 08:10:19;;;;;;;37.03;7.83;;;;;;;24.84;60.47;100229.63;7313387;19;129474;-41
2023/06/24 08:12:44;;;;;;;22.10;7.00;;;;;;;24.81;60.16;100240.44;7313449;19;128977;-37
2023/06/24 08:15:10;;;;;;;37.80;8.13;;;;;;;24.83;59.98;100239.31;7313155;19;129161;-33
2023/06/24 08:17:35;;;;;;;45.03;8.27;;;;;;;24.81;60.45;100243.09;7312203;19;129381;-43
2023/06/24 08:20:02;;;;;;;33.60;7.27;;;;;;;24.77;60.30;100244.34;7312295;19;128804;-42
2023/06/24 08:22:28;;;;;;;14.57;6.25;;;;;;;24.79;59.89;100247.66;7314139;19;128969;-32
2023/06/24 08:24:53;;;;;;;30.37;6.93;;;;;;;24.79;60.08;100250.28;7313800;19;129452;-37
2023/06/24 08:27:18;;;;;;;37.67;7.43;;;;;;;24.75;59.58;100243.63;7310474;19;130919;-38
2023/06/24 08:29:44;;;;;;;26.33;6.30;;;;;;;24.78;59.89;100246.81;7311862;19;129518;-40
2023/06/24 08:32:09;;;;;;;33.63;6.70;;;;;;;24.76;60.11;100245.31;7312841;19;129397;-35
2023/06/24 08:34:34;;;;;;;54.20;8.07;;;;;;;24.67;59.66;100238.25;7312016;19;129129;-40
2023/06/24 08:37:00;;;;;;;55.77;8.50;;;;;;;24.67;60.07;100243.50;7313145;19;129178;-40
2023/06/24 08:39:25;;;;;;;39.00;6.57;;;;;;;24.77;59.89;100262.75;7312689;19;129534;-38
2023/06/24 08:41:51;;;;;;;32.97;6.77;;;;;;;24.74;59.93;100250.72;7312499;19;129101;-38
2023/06/24 08:44:16;;;;;;;32.70;6.47;;;;;;;24.75;59.89;100256.78;7313438;19;129150;-40
2023/06/24 08:46:42;;;;;;;44.43;7.20;;;;;;;24.76;60.27;100258.47;7311165;19;130240;-44
2023/06/24 08:49:22;;;;;;;34.63;5.93;;;;;;;24.70;60.12;100264.28;7312667;19;128818;-41
2023/06/24 08:51:54;;;;;;;28.80;6.47;;;;;;;24.73;59.57;100266.63;7312258;19;128897;-43
2023/06/24 08:54:21;;;;;;;32.22;6.55;;;;;;;24.71;59.22;100272.03;7312801;19;130261;-41
2023/06/24 08:56:46;;;;;;;34.47;6.72;;;;;;;24.70;59.21;100272.16;7312411;19;129304;-44
2023/06/24 08:59:12;;;;;;;34.37;6.77;;;;;;;24.73;59.09;100274.50;7312854;19;129096;-41
2023/06/24 09:01:38;;;;;;;25.33;6.20;;;;;;;24.70;59.11;100264.28;7311659;19;129157;-41
2023/06/24 09:04:04;;;;;;;35.30;6.25;;;;;;;24.72;59.55;100272.88;7311826;19;129824;-45
2023/06/24 09:06:31;;;;;;;49.97;7.40;;;;;;;24.68;59.72;100264.44;7309527;19;131203;-40
2023/06/24 09:08:57;;;;;;;35.70;6.40;;;;;;;24.68;59.66;100263.59;7312848;19;129579;-41
2023/06/24 09:11:24;;;;;;;33.78;6.32;;;;;;;24.69;59.58;100267.91;7308770;19;128784;-44
2023/06/24 09:13:54;;;;;;;;;;;;;;;24.78;59.40;100267.84;7312131;19;129621;-40
2023/06/24 09:16:19;;;;;;;36.65;5.95;;;;;;;24.71;59.28;100271.22;7310907;19;129345;-45
2023/06/24 09:18:49;;;;;;;28.20;5.30;;;;;;;24.70;59.80;100270.38;7311502;19;128944;-43
2023/06/24 09:21:22;;;;;;;58.13;7.40;;;;;;;24.69;59.40;100268.72;7308821;19;129714;-41
2023/06/24 09:23:51;;;;;;;39.30;6.15;;;;;;;24.72;59.08;100262.34;7311415;19;129370;-42
2023/06/24 09:26:17;;;;;;;28.48;4.93;;;;;;;24.56;59.87;100248.94;7310850;19;130206;-43
2023/06/24 09:28:47;;;;;;;37.83;5.70;;;;;;;24.69;59.32;100262.63;7311763;19;129295;-41
2023/06/24 09:31:12;;;;;;;28.33;5.28;;;;;;;24.65;59.18;100267.31;7316342;19;129702;-44
2023/06/24 09:33:39;;;;;;;35.70;5.60;;;;;;;24.68;59.07;100276.75;7317807;19;129213;-42
2023/06/24 09:36:05;;;;;;;32.28;4.95;;;;;;;24.58;59.41;100249.63;7317509;19;129615;-41
2023/06/24 09:38:38;;;;;;;48.83;5.93;;;;;;;24.68;59.36;100271.47;7317341;19;128807;-41
2023/06/24 09:41:04;;;;;;;30.33;4.97;;;;;;;24.63;59.11;100258.72;7316397;19;129148;-40
2023/06/24 09:43:39;;;;;;;28.95;4.63;;;;;;;24.61;58.57;100260.66;7318121;19;129539;-42
2023/06/24 09:46:05;;;;;;;28.38;5.07;;;;;;;24.62;58.97;100262.34;7316849;19;130255;-37
2023/06/24 09:48:31;;;;;;;35.05;5.82;;;;;;;24.64;58.65;100254.31;7315973;19;129908;-43
2023/06/24 09:51:01;;;;;;;39.77;5.73;;;;;;;24.64;58.16;100249.06;7316301;19;128826;-43
2023/06/24 09:53:35;;;;;;;29.08;4.85;;;;;;;24.59;59.43;100261.81;7318618;19;129201;-41
2023/06/24 09:56:03;;;;;;;26.83;4.82;;;;;;;24.61;57.97;100257.25;7317766;19;129814;-42
2023/06/24 09:58:32;;;;;;;39.45;5.78;;;;;;;24.60;58.41;100261.66;7317257;19;129330;-41
2023/06/24 10:01:03;;;;;;;54.88;6.50;;;;;;;24.59;58.47;100253.91;7313634;19;128865;-44
2023/06/24 10:03:33;;;;;;;32.60;4.95;;;;;;;24.56;57.71;100249.75;7317568;19;129180;-41
2023/06/24 10:06:00;;;;;;;25.98;4.70;;;;;;;24.61;57.97;100265.13;7317607;19;129412;-42
2023/06/24 10:08:26;;;;;;;26.75;4.78;;;;;;;24.59;57.91;100253.91;7313727;19;129270;-42
2023/06/24 10:10:52;;;;;;;;;;;;;;;24.56;58.38;100259.47;7315272;19;129449;-44
2023/06/24 10:13:17;;;;;;;46.75;5.85;;;;;;;24.50;58.35;100263.47;7318007;19;129009;-39
2023/06/24 10:15:43;;;;;;;40.50;6.03;;;;;;;24.54;58.01;100261.41;7316382;19;129358;-43
2023/06/24 10:18:36;;;;;;;40.07;6.10;;;;;;;24.59;57.83;100261.81;7317426;19;129407;-40
2023/06/24 10:21:07;;;;;;;35.85;5.80;;;;;;;24.54;58.24;100259.59;7314366;19;128843;-39
2023/06/24 10:23:51;;;;;;;44.58;5.53;;;;;;;24.51;57.97;100249.34;7317089;19;129520;-42
2023/06/24 10:26:28;;;;;;;35.35;5.47;;;;;;;24.56;57.89;100254.19;7315812;19;129268;-43
2023/06/24 10:29:05;;;;;;;40.17;5.50;;;;;;;24.54;58.02;100256.13;7316040;19;128876;-39
2023/06/24 10:31:39;;;;;;;;;;;;;;;24.65;57.96;100266.47;7316120;19;129352;-43
2023/06/24 10:34:23;;;;;;;28.17;4.75;;;;;;;24.51;57.82;100253.81;7316473;19;129613;-43
2023/06/24 10:37:07;;;;;;;26.90;4.85;;;;;;;24.58;57.72;100270.66;7316546;19;129459;-34
2023/06/24 10:39:35;;;;;;;25.77;4.88;;;;;;;24.51;57.88;100266.94;7315042;19;128783;-39
2023/06/24 10:42:26;;;;;;;30.35;4.53;;;;;;;24.54;58.01;100258.78;7315294;19;129298;-42
2023/06/24 10:44:54;;;;;;;36.95;5.20;;;;;;;24.49;57.58;100257.38;7315863;19;129447;-34
2023/06/24 10:47:21;;;;;;;23.95;4.35;;;;;;;24.52;58.10;100260.69;7315280;19;129146;-36
2023/06/24 10:49:46;;;;;;;;;;;;;;;24.59;58.06;100246.88;7315814;19;129337;-36
2023/06/24 10:52:12;;;;;;;23.60;4.50;;;;;;;24.52;57.73;100252.81;7316872;19;129472;-35
2023/06/24 10:54:38;;;;;;;19.17;4.18;;;;;;;24.46;57.74;100246.34;7314102;19;129202;-37
2023/06/24 10:57:04;;;;;;;27.67;4.82;;;;;;;24.52;57.38;100242.31;7316176;19;129146;-33
2023/06/24 10:59:42;;;;;;;46.70;5.90;;;;;;;24.55;57.43;100247.28;7314214;19;130446;-44
2023/06/24 11:02:14;;;;;;;44.72;6.05;;;;;;;24.46;57.38;100241.91;7316221;19;129996;-43
2023/06/24 11:04:53;;;;;;;28.67;4.40;;;;;;;24.51;57.54;100232.78;7314075;19;129155;-43
2023/06/24 11:07:20;;;;;;;25.30;4.78;;;;;;;24.46;57.79;100227.94;7315081;19;129178;-42
2023/06/24 11:09:52;;;;;;;26.67;4.70;;;;;;;24.34;57.72;100223.81;7313794;19;129034;-42